Time;durP1;ratioP1;P1;durP2;ratioP2;P2;SDS_P1;SDS_P2;PMS_P1;PMS_P2;Temp;Humidity;BMP_temperature;BMP_pressure;BME280_temperature;BME280_humidity;BME280_pressure;Samples;Min_cycle;Max_cycle;Signal;HPM_P1;HPM_P2
2024/02/22 00:00:50;;;;;;;0.32;0.32;;;;;;;7.32;100.00;98054.31;5032627;28;20041;-58
2024/02/22 00:03:17;;;;;;;0.40;0.40;;;;;;;7.33;100.00;98051.38;5034361;28;20111;-58
2024/02/22 00:05:45;;;;;;;0.30;0.30;;;;;;;7.29;100.00;98038.81;5014998;28;20045;-58
2024/02/22 00:08:12;;;;;;;0.30;0.30;;;;;;;7.23;100.00;98039.81;5033166;28;20041;-59
2024/02/22 00:10:41;;;;;;;0.40;0.40;;;;;;;7.33;100.00;98039.91;5050784;28;20695;-59
2024/02/22 00:13:08;;;;;;;0.35;0.35;;;;;;;7.24;100.00;98028.91;5035253;28;20791;-59
2024/02/22 00:15:36;;;;;;;0.30;0.30;;;;;;;7.35;100.00;98021.81;5036171;28;20306;-59
2024/02/22 00:18:04;;;;;;;0.30;0.30;;;;;;;7.24;100.00;98014.75;5030312;28;20037;-59
2024/02/22 00:20:31;;;;;;;0.30;0.30;;;;;;;7.35;100.00;98021.81;5033288;28;20037;-59
2024/02/22 00:22:59;;;;;;;0.30;0.30;;;;;;;7.27;100.00;98016.94;5036584;28;20042;-58
2024/02/22 00:25:26;;;;;;;0.30;0.30;;;;;;;7.26;100.00;98012.66;5033550;28;20097;-59
2024/02/22 00:27:55;;;;;;;0.30;0.30;;;;;;;7.24;100.00;97998.75;5034567;28;20055;-59
2024/02/22 00:30:25;;;;;;;0.38;0.38;;;;;;;7.23;100.00;97997.16;5030907;28;20042;-59
2024/02/22 00:32:52;;;;;;;0.40;0.40;;;;;;;7.31;100.00;97994.03;5032790;28;20080;-58
2024/02/22 00:35:20;;;;;;;0.30;0.30;;;;;;;7.18;100.00;97994.44;5037283;28;20075;-58
2024/02/22 00:37:47;;;;;;;0.40;0.40;;;;;;;7.25;100.00;97989.72;5034051;28;20047;-58
2024/02/22 00:40:15;;;;;;;0.30;0.30;;;;;;;7.25;100.00;97984.41;5032813;28;20189;-58
2024/02/22 00:42:42;;;;;;;0.40;0.40;;;;;;;7.30;100.00;97984.44;5033708;28;20885;-59
2024/02/22 00:45:11;;;;;;;0.30;0.30;;;;;;;7.33;100.00;97978.59;5030403;28;20056;-59
2024/02/22 00:47:38;;;;;;;0.40;0.40;;;;;;;7.30;100.00;97976.44;5029831;28;20084;-59
2024/02/22 00:50:07;;;;;;;0.30;0.30;;;;;;;7.32;100.00;97959.16;5038029;28;20037;-59
2024/02/22 00:52:35;;;;;;;0.30;0.30;;;;;;;7.23;100.00;97959.84;5035550;28;20049;-59
2024/02/22 00:55:02;;;;;;;0.30;0.30;;;;;;;7.31;100.00;97962.88;5024581;28;20088;-60
2024/02/22 00:57:29;;;;;;;0.40;0.40;;;;;;;7.41;100.00;97956.81;5028172;28;20044;-59
2024/02/22 00:59:56;;;;;;;0.40;0.40;;;;;;;7.35;100.00;97953.31;5025297;28;20562;-59
2024/02/22 01:02:26;;;;;;;0.30;0.30;;;;;;;7.37;100.00;97941.59;5031473;28;20045;-57
2024/02/22 01:04:53;;;;;;;0.30;0.30;;;;;;;7.55;100.00;97942.03;5036558;28;20533;-57
2024/02/22 01:07:20;;;;;;;0.25;0.25;;;;;;;7.46;100.00;97937.41;5034459;28;20048;-60
2024/02/22 01:09:48;;;;;;;0.30;0.30;;;;;;;7.41;100.00;97934.69;5028417;28;20128;-57
2024/02/22 01:12:15;;;;;;;0.40;0.40;;;;;;;7.48;100.00;97925.44;5047491;28;20069;-58
2024/02/22 01:14:42;;;;;;;0.30;0.30;;;;;;;7.46;100.00;97922.25;5036206;28;20119;-58
2024/02/22 01:17:09;;;;;;;0.38;0.38;;;;;;;7.45;100.00;97915.28;5030834;28;20163;-57
2024/02/22 01:19:38;;;;;;;0.30;0.30;;;;;;;7.53;100.00;97928.13;5033601;28;20048;-57
2024/02/22 01:22:05;;;;;;;0.30;0.30;;;;;;;7.52;100.00;97923.06;5031746;28;20087;-58
2024/02/22 01:24:33;;;;;;;0.30;0.30;;;;;;;7.51;100.00;97908.94;5032055;28;20139;-58
2024/02/22 01:27:01;;;;;;;0.30;0.30;;;;;;;7.55;100.00;97902.03;5032185;28;20135;-58
2024/02/22 01:29:31;;;;;;;0.40;0.40;;;;;;;7.57;100.00;97902.56;5028295;28;20495;-58
2024/02/22 01:31:58;;;;;;;0.30;0.30;;;;;;;7.48;100.00;97897.97;5031260;28;20095;-58
2024/02/22 01:34:25;;;;;;;0.40;0.40;;;;;;;7.40;100.00;97885.13;5036652;28;20053;-58
2024/02/22 01:36:54;;;;;;;0.30;0.30;;;;;;;7.44;100.00;97881.69;5031792;28;20037;-59
2024/02/22 01:39:21;;;;;;;0.40;0.40;;;;;;;7.41;100.00;97874.19;5031273;28;20148;-58
2024/02/22 01:41:48;;;;;;;0.40;0.40;;;;;;;7.49;100.00;97873.72;5030942;28;20083;-57
2024/02/22 01:44:16;;;;;;;0.30;0.30;;;;;;;7.41;100.00;97871.50;5034855;28;20782;-59
2024/02/22 01:46:42;;;;;;;0.30;0.30;;;;;;;7.51;100.00;97863.63;5038395;28;20684;-58
2024/02/22 01:49:09;;;;;;;0.40;0.40;;;;;;;7.42;100.00;97841.16;5033544;28;20783;-59
2024/02/22 01:51:36;;;;;;;0.40;0.40;;;;;;;7.50;100.00;97843.34;5030131;28;20049;-60
2024/02/22 01:54:05;;;;;;;0.30;0.30;;;;;;;7.46;100.00;97844.91;5031033;28;20045;-58
2024/02/22 01:56:32;;;;;;;0.40;0.40;;;;;;;7.46;100.00;97842.25;5032406;28;20522;-58
2024/02/22 01:59:00;;;;;;;0.35;0.35;;;;;;;7.41;100.00;97833.41;5036920;28;20049;-58
2024/02/22 02:01:27;;;;;;;0.30;0.30;;;;;;;7.43;100.00;97832.09;5034433;28;20496;-58
2024/02/22 02:03:54;;;;;;;0.35;0.35;;;;;;;7.46;100.00;97828.09;5033516;28;20079;-60
2024/02/22 02:06:21;;;;;;;0.38;0.38;;;;;;;7.43;100.00;97818.75;5033137;28;20064;-57
2024/02/22 02:08:48;;;;;;;0.30;0.30;;;;;;;7.50;100.00;97822.00;5032653;28;20103;-58
2024/02/22 02:11:17;;;;;;;0.40;0.40;;;;;;;7.61;100.00;97814.88;5041192;28;20083;-57
2024/02/22 02:13:44;;;;;;;0.40;0.40;;;;;;;7.49;100.00;97812.41;5033536;28;20455;-57
2024/02/22 02:16:11;;;;;;;0.35;0.35;;;;;;;7.46;100.00;97804.09;5033587;28;20041;-57
2024/02/22 02:18:38;;;;;;;0.30;0.30;;;;;;;7.50;100.00;97799.88;5035862;28;20077;-58
2024/02/22 02:21:07;;;;;;;0.20;0.20;;;;;;;7.50;100.00;97806.00;5032414;28;20686;-57
2024/02/22 02:23:45;;;;;;;0.30;0.30;;;;;;;7.55;100.00;97792.72;5032172;28;20045;-58
2024/02/22 02:26:13;;;;;;;0.30;0.30;;;;;;;7.46;100.00;97785.44;5032117;28;20515;-57
2024/02/22 02:28:40;;;;;;;0.30;0.30;;;;;;;7.49;100.00;97790.28;5039258;28;20139;-58
2024/02/22 02:31:07;;;;;;;0.30;0.30;;;;;;;7.49;100.00;97774.28;5022430;28;20049;-58
2024/02/22 02:33:34;;;;;;;0.30;0.30;;;;;;;7.51;100.00;97786.31;5035667;28;20056;-58
2024/02/22 02:36:01;;;;;;;0.30;0.30;;;;;;;7.54;100.00;97784.97;5044310;28;20052;-57
2024/02/22 02:38:28;;;;;;;0.40;0.40;;;;;;;7.54;100.00;97774.31;5036915;28;20081;-58
2024/02/22 02:40:55;;;;;;;0.30;0.30;;;;;;;7.56;100.00;97761.50;5034481;28;20782;-59
2024/02/22 02:43:24;;;;;;;0.30;0.30;;;;;;;7.59;100.00;97761.00;5038074;28;20048;-59
2024/02/22 02:45:51;;;;;;;0.28;0.28;;;;;;;7.55;100.00;97759.91;5033211;28;20116;-59
2024/02/22 02:48:19;;;;;;;0.30;0.30;;;;;;;7.57;100.00;97753.25;5037515;28;20068;-59
2024/02/22 02:50:46;;;;;;;0.30;0.30;;;;;;;7.52;100.00;97750.56;5040219;28;20041;-59
2024/02/22 02:53:13;;;;;;;0.30;0.30;;;;;;;7.55;100.00;97744.72;5036692;28;20095;-59
2024/02/22 02:55:40;;;;;;;0.30;0.30;;;;;;;7.55;100.00;97743.91;5038213;28;20049;-59
2024/02/22 02:58:08;;;;;;;0.30;0.30;;;;;;;7.57;100.00;97739.94;5025794;28;20115;-59
2024/02/22 03:00:36;;;;;;;0.43;0.43;;;;;;;7.54;100.00;97737.78;5032431;28;20055;-59
2024/02/22 03:03:03;;;;;;;0.40;0.40;;;;;;;7.46;100.00;97729.47;5038157;28;20722;-59
2024/02/22 03:05:31;;;;;;;0.30;0.30;;;;;;;7.51;100.00;97732.97;5036871;28;20080;-59
2024/02/22 03:07:58;;;;;;;0.30;0.30;;;;;;;7.54;100.00;97726.34;5031315;28;20045;-59
2024/02/22 03:10:25;;;;;;;0.30;0.30;;;;;;;7.51;100.00;97727.66;5033086;28;20083;-59
2024/02/22 03:12:52;;;;;;;0.30;0.30;;;;;;;7.56;100.00;97725.00;5041111;28;20131;-59
2024/02/22 03:15:19;;;;;;;0.25;0.25;;;;;;;7.52;100.00;97715.91;5041645;28;20506;-59
2024/02/22 03:17:50;;;;;;;0.30;0.30;;;;;;;7.54;100.00;97731.66;5034906;28;20053;-59
2024/02/22 03:20:17;;;;;;;0.20;0.20;;;;;;;7.57;100.00;97723.13;5042367;28;20048;-59
2024/02/22 03:22:44;;;;;;;0.35;0.35;;;;;;;7.54;100.00;97735.13;5037606;28;20090;-60
2024/02/22 03:25:12;;;;;;;0.47;0.47;;;;;;;7.53;100.00;97733.50;5037933;28;20077;-59
2024/02/22 03:27:39;;;;;;;0.20;0.20;;;;;;;7.57;100.00;97739.13;5039894;28;20047;-59
2024/02/22 03:30:08;;;;;;;0.30;0.30;;;;;;;7.63;100.00;97724.75;5034368;28;20043;-59
2024/02/22 03:32:37;;;;;;;0.30;0.30;;;;;;;7.57;100.00;97713.28;5036701;28;20498;-59
2024/02/22 03:35:06;;;;;;;0.20;0.20;;;;;;;7.69;100.00;97718.41;5036318;28;20636;-59
2024/02/22 03:37:34;;;;;;;0.22;0.22;;;;;;;7.62;100.00;97717.03;5022202;28;20749;-59
2024/02/22 03:40:01;;;;;;;0.32;0.32;;;;;;;7.63;100.00;97723.97;5032904;28;20045;-59
2024/02/22 03:42:29;;;;;;;0.30;0.30;;;;;;;7.59;100.00;97718.34;5034766;28;20049;-59
2024/02/22 03:44:56;;;;;;;0.30;0.30;;;;;;;7.59;100.00;97701.53;5037249;28;20780;-60
2024/02/22 03:47:23;;;;;;;0.30;0.30;;;;;;;7.68;100.00;97690.09;5043809;28;20107;-57
2024/02/22 03:49:50;;;;;;;0.40;0.40;;;;;;;7.63;100.00;97686.63;5028928;28;20136;-57
2024/02/22 03:52:18;;;;;;;0.30;0.30;;;;;;;7.63;100.00;97676.75;5029344;28;20768;-57
2024/02/22 03:54:45;;;;;;;0.40;0.40;;;;;;;7.61;100.00;97686.09;5031020;28;20644;-57
2024/02/22 03:57:13;;;;;;;0.30;0.30;;;;;;;7.65;100.00;97689.84;5038880;28;20305;-57
2024/02/22 03:59:40;;;;;;;0.28;0.28;;;;;;;7.64;100.00;97682.88;5034076;28;20053;-57
2024/02/22 04:02:07;;;;;;;0.30;0.30;;;;;;;7.63;100.00;97681.28;5034894;28;20037;-57
2024/02/22 04:04:34;;;;;;;0.30;0.30;;;;;;;7.61;100.00;97678.88;5032230;28;20060;-57
2024/02/22 04:07:01;;;;;;;0.38;0.38;;;;;;;7.64;100.00;97672.22;5027908;28;20057;-57
2024/02/22 04:09:29;;;;;;;0.22;0.22;;;;;;;7.60;100.00;97665.81;5037381;28;20124;-59
2024/02/22 04:11:57;;;;;;;0.30;0.30;;;;;;;7.62;100.00;97653.03;5032333;28;20061;-58
2024/02/22 04:14:24;;;;;;;0.40;0.40;;;;;;;7.63;100.00;97652.75;5032206;28;20436;-58
2024/02/22 04:16:51;;;;;;;0.30;0.30;;;;;;;7.64;100.00;97656.22;5014547;28;20044;-58
2024/02/22 04:19:18;;;;;;;0.30;0.30;;;;;;;7.65;100.00;97647.19;5035529;28;20130;-58
2024/02/22 04:21:45;;;;;;;0.30;0.30;;;;;;;7.60;100.00;97649.81;5026548;28;20057;-58
2024/02/22 04:24:12;;;;;;;0.28;0.28;;;;;;;7.64;100.00;97637.56;5032257;28;20041;-59
2024/02/22 04:26:48;;;;;;;0.30;0.30;;;;;;;7.67;100.00;97645.84;5030892;28;20637;-58
2024/02/22 04:29:16;;;;;;;0.30;0.30;;;;;;;7.62;100.00;97645.84;5026212;28;20135;-59
2024/02/22 04:31:43;;;;;;;0.40;0.40;;;;;;;7.65;100.00;97653.31;5031721;28;20076;-58
2024/02/22 04:34:10;;;;;;;0.40;0.40;;;;;;;7.63;100.00;97642.09;5029056;28;20514;-58
2024/02/22 04:36:41;;;;;;;0.20;0.20;;;;;;;7.61;100.00;97646.09;5034759;28;20046;-58
2024/02/22 04:39:09;;;;;;;0.30;0.30;;;;;;;7.64;100.00;97640.22;5034053;28;20047;-58
2024/02/22 04:41:36;;;;;;;0.30;0.30;;;;;;;7.69;100.00;97645.59;5030812;28;20053;-58
2024/02/22 04:44:05;;;;;;;0.30;0.30;;;;;;;7.66;100.00;97638.94;5033948;28;20044;-58
2024/02/22 04:46:35;;;;;;;;;;;;;;;7.61;100.00;97640.75;5031302;28;20551;-58
2024/02/22 04:49:04;;;;;;;0.40;0.40;;;;;;;7.56;100.00;97629.03;5032187;28;20238;-58
2024/02/22 04:51:31;;;;;;;0.32;0.32;;;;;;;7.63;100.00;97615.44;5035433;28;20134;-58
2024/02/22 04:53:58;;;;;;;0.30;0.30;;;;;;;7.53;100.00;97618.06;5035103;28;20068;-58
2024/02/22 04:56:25;;;;;;;0.40;0.40;;;;;;;7.57;100.00;97609.28;5030715;28;20054;-58
2024/02/22 04:58:53;;;;;;;0.28;0.28;;;;;;;7.52;100.00;97606.59;5035143;28;20099;-58
2024/02/22 05:01:21;;;;;;;0.30;0.30;;;;;;;7.64;100.00;97602.88;5030464;28;20045;-58
2024/02/22 05:03:49;;;;;;;0.35;0.35;;;;;;;7.58;100.00;97610.09;5037293;28;20052;-58
2024/02/22 05:06:16;;;;;;;0.40;0.40;;;;;;;7.60;100.00;97613.28;5025120;28;20045;-58
2024/02/22 05:08:44;;;;;;;0.30;0.30;;;;;;;7.54;100.00;97587.69;5035895;28;20461;-58
2024/02/22 05:11:12;;;;;;;0.30;0.30;;;;;;;7.53;100.00;97586.88;5032878;28;20048;-58
2024/02/22 05:13:39;;;;;;;0.30;0.30;;;;;;;7.57;100.00;97585.28;5035749;28;20713;-58
2024/02/22 05:16:07;;;;;;;0.30;0.30;;;;;;;7.57;100.00;97587.97;5029313;28;20768;-58
2024/02/22 05:18:37;;;;;;;0.35;0.35;;;;;;;7.61;100.00;97595.44;5032427;28;20053;-58
2024/02/22 05:21:04;;;;;;;0.30;0.30;;;;;;;7.60;100.00;97583.97;5036226;28;20106;-58
2024/02/22 05:23:32;;;;;;;0.30;0.30;;;;;;;7.66;100.00;97590.09;5036823;28;20128;-58
2024/02/22 05:25:58;;;;;;;0.30;0.30;;;;;;;7.58;100.00;97583.41;5036970;28;20045;-58
2024/02/22 05:28:26;;;;;;;0.30;0.30;;;;;;;7.65;100.00;97569.84;5036688;28;20131;-58
2024/02/22 05:30:53;;;;;;;0.30;0.30;;;;;;;7.64;100.00;97578.88;5032351;28;20076;-58
2024/02/22 05:33:20;;;;;;;0.40;0.40;;;;;;;7.65;100.00;97569.84;5041034;28;20750;-58
2024/02/22 05:35:48;;;;;;;0.30;0.30;;;;;;;7.66;100.00;97569.59;5034917;28;20045;-59
2024/02/22 05:38:15;;;;;;;0.30;0.30;;;;;;;7.70;100.00;97565.31;5029633;28;20049;-58
2024/02/22 05:40:43;;;;;;;0.30;0.30;;;;;;;7.66;100.00;97574.09;5035720;28;20054;-58
2024/02/22 05:43:10;;;;;;;0.40;0.40;;;;;;;7.76;100.00;97560.78;5030508;28;20551;-58
2024/02/22 05:45:41;;;;;;;0.30;0.30;;;;;;;7.64;100.00;97563.72;5035280;28;20041;-58
2024/02/22 05:48:09;;;;;;;0.32;0.32;;;;;;;7.69;100.00;97552.25;5035592;28;20579;-58
2024/02/22 05:50:37;;;;;;;0.20;0.20;;;;;;;7.72;100.00;97541.06;5035735;28;20055;-58
2024/02/22 05:53:05;;;;;;;0.30;0.30;;;;;;;7.72;100.00;97536.53;5024033;28;20092;-58
2024/02/22 05:55:32;;;;;;;0.32;0.32;;;;;;;7.67;100.00;97533.06;5025762;28;20703;-58
2024/02/22 05:57:59;;;;;;;0.40;0.40;;;;;;;7.73;100.00;97526.66;5026826;28;20124;-59
2024/02/22 06:00:26;;;;;;;0.20;0.20;;;;;;;7.68;100.00;97534.66;5034795;28;20115;-58
2024/02/22 06:02:53;;;;;;;0.30;0.30;;;;;;;7.75;100.00;97532.53;5030321;28;20069;-58
2024/02/22 06:05:20;;;;;;;0.30;0.30;;;;;;;7.82;100.00;97533.06;5034245;28;20128;-58
2024/02/22 06:07:47;;;;;;;0.25;0.25;;;;;;;7.78;100.00;97532.00;5027305;28;20432;-58
2024/02/22 06:10:18;;;;;;;0.30;0.30;;;;;;;7.78;100.00;97534.66;5028344;28;20124;-58
2024/02/22 06:12:46;;;;;;;0.20;0.20;;;;;;;7.74;100.00;97530.94;5027389;28;20037;-58
2024/02/22 06:15:13;;;;;;;0.30;0.30;;;;;;;7.77;100.00;97517.84;5032977;28;20043;-58
2024/02/22 06:17:39;;;;;;;0.30;0.30;;;;;;;7.72;100.00;97507.19;5023544;28;20042;-58
2024/02/22 06:20:08;;;;;;;0.28;0.28;;;;;;;7.77;100.00;97496.53;5036195;28;20045;-58
2024/02/22 06:22:35;;;;;;;0.30;0.30;;;;;;;7.81;100.00;97483.44;5026665;28;20087;-58
2024/02/22 06:25:02;;;;;;;0.40;0.40;;;;;;;7.79;100.00;97480.25;5029541;28;20079;-58
2024/02/22 06:27:31;;;;;;;0.30;0.30;;;;;;;7.76;100.00;97478.09;5031281;28;20048;-58
2024/02/22 06:29:58;;;;;;;0.30;0.30;;;;;;;7.78;100.00;97475.97;5033223;28;20041;-58
2024/02/22 06:32:26;;;;;;;0.30;0.30;;;;;;;7.71;100.00;97480.78;5035176;28;20114;-58
2024/02/22 06:34:53;;;;;;;0.40;0.40;;;;;;;7.69;100.00;97483.72;5028056;28;20045;-59
2024/02/22 06:37:20;;;;;;;0.30;0.30;;;;;;;7.80;100.00;97473.84;5041156;28;20041;-58
2024/02/22 06:39:47;;;;;;;0.30;0.30;;;;;;;7.76;100.00;97467.44;5034016;28;20701;-58
2024/02/22 06:42:14;;;;;;;0.32;0.32;;;;;;;7.69;100.00;97458.94;5033528;28;20049;-58
2024/02/22 06:44:45;;;;;;;0.35;0.35;;;;;;;7.75;100.00;97447.19;5036842;28;20076;-57
2024/02/22 06:47:12;;;;;;;0.30;0.30;;;;;;;7.74;100.00;97434.94;5027332;28;20052;-58
2024/02/22 06:49:39;;;;;;;0.30;0.30;;;;;;;7.77;100.00;97431.72;5036177;28;20128;-57
2024/02/22 06:52:07;;;;;;;0.30;0.30;;;;;;;7.74;100.00;97410.94;5027825;28;20046;-57
2024/02/22 06:54:35;;;;;;;0.30;0.30;;;;;;;7.74;100.00;97410.94;5038484;28;22251;-58
2024/02/22 06:57:03;;;;;;;0.20;0.20;;;;;;;7.80;100.00;97404.50;5039021;28;20065;-57
2024/02/22 06:59:30;;;;;;;0.30;0.30;;;;;;;7.77;100.00;97405.06;5033292;28;20041;-58
2024/02/22 07:01:58;;;;;;;0.40;0.40;;;;;;;7.72;100.00;97408.53;5036459;28;20048;-57
2024/02/22 07:04:25;;;;;;;0.38;0.38;;;;;;;7.82;100.00;97415.72;5038916;28;20856;-58
2024/02/22 07:06:52;;;;;;;0.30;0.30;;;;;;;7.86;100.00;97411.44;5034856;28;20494;-58
2024/02/22 07:09:19;;;;;;;0.30;0.30;;;;;;;7.86;100.00;97414.13;5038505;28;20568;-58
2024/02/22 07:11:47;;;;;;;0.30;0.30;;;;;;;7.94;100.00;97421.56;5038292;28;20056;-58
2024/02/22 07:14:14;;;;;;;0.30;0.30;;;;;;;8.00;100.00;97407.13;5036476;28;20077;-58
2024/02/22 07:16:41;;;;;;;0.30;0.30;;;;;;;7.99;100.00;97402.88;5036030;28;20049;-58
2024/02/22 07:19:11;;;;;;;0.30;0.30;;;;;;;7.97;100.00;97405.00;5036142;28;20072;-58
2024/02/22 07:21:38;;;;;;;0.32;0.32;;;;;;;7.98;100.00;97395.13;5036368;28;20076;-58
2024/02/22 07:24:06;;;;;;;0.30;0.30;;;;;;;8.05;100.00;97378.84;5021223;28;20052;-58
2024/02/22 07:26:33;;;;;;;0.30;0.30;;;;;;;8.14;100.00;97378.03;5045672;28;20049;-58
2024/02/22 07:29:00;;;;;;;0.20;0.20;;;;;;;8.12;100.00;97364.16;5034621;28;20049;-58
2024/02/22 07:31:27;;;;;;;0.30;0.30;;;;;;;8.28;100.00;97359.56;5036017;28;20492;-58
2024/02/22 07:33:54;;;;;;;0.30;0.30;;;;;;;8.31;100.00;97356.38;5033210;28;20124;-58
2024/02/22 07:36:23;;;;;;;0.30;0.30;;;;;;;8.28;100.00;97361.44;5027959;28;20053;-58
2024/02/22 07:38:50;;;;;;;0.38;0.38;;;;;;;8.51;100.00;97360.84;5031210;28;20552;-58
2024/02/22 07:41:18;;;;;;;0.30;0.30;;;;;;;8.53;100.00;97357.88;5035616;28;20053;-58
2024/02/22 07:43:45;;;;;;;0.30;0.30;;;;;;;8.65;100.00;97363.69;5032495;28;20033;-58
2024/02/22 07:46:13;;;;;;;0.20;0.20;;;;;;;8.90;100.00;97354.75;5031345;28;20053;-58
2024/02/22 07:48:40;;;;;;;0.22;0.22;;;;;;;8.96;100.00;97355.50;5033664;28;20408;-58
2024/02/22 07:51:10;;;;;;;0.30;0.30;;;;;;;8.92;100.00;97357.94;5035466;28;20610;-59
2024/02/22 07:53:38;;;;;;;0.30;0.30;;;;;;;9.29;100.00;97349.38;5030310;28;20541;-59
2024/02/22 07:56:07;;;;;;;0.30;0.30;;;;;;;9.31;100.00;97356.31;5036211;28;20033;-59
2024/02/22 07:58:45;;;;;;;0.30;0.30;;;;;;;9.18;100.00;97341.72;5034172;28;20045;-59
2024/02/22 08:01:12;;;;;;;0.30;0.30;;;;;;;9.28;100.00;97333.63;5032722;28;20106;-58
2024/02/22 08:03:40;;;;;;;0.30;0.30;;;;;;;9.10;100.00;97332.44;5030921;28;20072;-58
2024/02/22 08:06:07;;;;;;;0.20;0.20;;;;;;;9.14;100.00;97340.69;5032175;28;20048;-58
2024/02/22 08:08:35;;;;;;;0.20;0.20;;;;;;;8.85;100.00;97328.84;5035216;28;20080;-57
2024/02/22 08:11:03;;;;;;;0.20;0.20;;;;;;;8.82;100.00;97334.75;5034055;28;20103;-58
2024/02/22 08:13:30;;;;;;;0.20;0.20;;;;;;;8.89;100.00;97329.13;5036005;28;20467;-58
2024/02/22 08:16:02;;;;;;;0.30;0.30;;;;;;;8.91;100.00;97320.81;5038118;28;20498;-58
2024/02/22 08:18:29;;;;;;;0.20;0.20;;;;;;;8.86;100.00;97318.97;5039957;28;20762;-58
2024/02/22 08:20:57;;;;;;;0.30;0.30;;;;;;;9.04;100.00;97312.97;5032331;28;20052;-59
2024/02/22 08:23:24;;;;;;;0.30;0.30;;;;;;;8.98;100.00;97313.28;5029461;28;20053;-58
2024/02/22 08:25:51;;;;;;;0.30;0.30;;;;;;;9.03;100.00;97307.88;5035600;28;20494;-58
2024/02/22 08:28:20;;;;;;;0.30;0.30;;;;;;;9.18;100.00;97302.41;5036905;28;20140;-58
2024/02/22 08:30:47;;;;;;;0.20;0.20;;;;;;;9.18;100.00;97305.09;5033028;28;20111;-58
2024/02/22 08:33:14;;;;;;;0.20;0.20;;;;;;;9.21;100.00;97293.88;5034322;28;20048;-58
2024/02/22 08:35:41;;;;;;;0.30;0.30;;;;;;;9.11;100.00;97279.75;5038989;28;20037;-58
2024/02/22 08:38:09;;;;;;;0.22;0.22;;;;;;;9.17;100.00;97276.78;5029198;28;20563;-58
2024/02/22 08:40:37;;;;;;;0.30;0.30;;;;;;;9.01;100.00;97260.09;5032541;28;20049;-58
2024/02/22 08:43:04;;;;;;;0.20;0.20;;;;;;;9.07;100.00;97260.84;5030472;28;20049;-58
2024/02/22 08:45:33;;;;;;;0.20;0.20;;;;;;;9.12;100.00;97258.13;5031225;28;20508;-58
2024/02/22 08:48:00;;;;;;;0.20;0.20;;;;;;;9.25;100.00;97257.44;5031358;28;20052;-58
2024/02/22 08:50:27;;;;;;;0.30;0.30;;;;;;;9.24;100.00;97247.06;5041209;28;20053;-58
2024/02/22 08:52:56;;;;;;;0.20;0.20;;;;;;;9.26;100.00;97237.69;5037218;28;20099;-58
2024/02/22 08:55:24;;;;;;;0.30;0.30;;;;;;;9.33;100.00;97237.31;5031168;28;20128;-59
2024/02/22 08:57:51;;;;;;;0.30;0.30;;;;;;;9.42;100.00;97237.53;5034507;28;20067;-58
2024/02/22 09:00:19;;;;;;;0.20;0.20;;;;;;;9.34;100.00;97230.91;5029135;28;20804;-58
2024/02/22 09:02:48;;;;;;;0.30;0.30;;;;;;;9.40;100.00;97231.66;5023020;28;20076;-58
2024/02/22 09:05:15;;;;;;;0.32;0.32;;;;;;;9.52;100.00;97226.72;5034290;28;20150;-58
2024/02/22 09:07:42;;;;;;;0.22;0.22;;;;;;;9.45;100.00;97219.03;5038447;28;20049;-59
2024/02/22 09:10:10;;;;;;;0.30;0.30;;;;;;;9.41;100.00;97222.53;5029428;28;20041;-59
2024/02/22 09:12:40;;;;;;;0.30;0.30;;;;;;;9.71;100.00;97218.75;5049329;28;20152;-58
2024/02/22 09:15:09;;;;;;;0.30;0.30;;;;;;;9.89;100.00;97225.22;5029607;28;20068;-59
2024/02/22 09:17:36;;;;;;;0.30;0.30;;;;;;;9.78;100.00;97215.72;5027391;28;20696;-58
2024/02/22 09:20:06;;;;;;;0.30;0.30;;;;;;;9.68;100.00;97209.44;5029536;28;20080;-58
2024/02/22 09:22:33;;;;;;;0.30;0.30;;;;;;;9.83;100.00;97194.25;5033289;28;20106;-58
2024/02/22 09:25:00;;;;;;;0.30;0.30;;;;;;;10.00;100.00;97197.25;5029027;28;20087;-60
2024/02/22 09:27:29;;;;;;;0.30;0.30;;;;;;;9.93;100.00;97202.16;5024246;28;20862;-57
2024/02/22 09:29:58;;;;;;;0.20;0.20;;;;;;;10.12;100.00;97200.28;5031269;28;20056;-58
2024/02/22 09:32:25;;;;;;;0.28;0.28;;;;;;;10.14;100.00;97202.69;5035083;28;20045;-58
2024/02/22 09:34:52;;;;;;;0.25;0.25;;;;;;;10.26;100.00;97199.56;5035752;28;20521;-58
2024/02/22 09:37:21;;;;;;;0.28;0.28;;;;;;;10.16;100.00;97195.16;5032726;28;20052;-58
2024/02/22 09:39:50;;;;;;;0.20;0.20;;;;;;;10.18;100.00;97192.19;5032164;28;20127;-58
2024/02/22 09:42:18;;;;;;;0.20;0.20;;;;;;;10.10;100.00;97180.25;5032600;28;20037;-58
2024/02/22 09:44:46;;;;;;;0.20;0.20;;;;;;;10.04;100.00;97176.06;5032697;28;20045;-58
2024/02/22 09:47:14;;;;;;;0.20;0.20;;;;;;;9.99;100.00;97166.22;5037552;28;20057;-58
2024/02/22 09:49:42;;;;;;;0.20;0.20;;;;;;;9.76;100.00;97164.38;5028164;28;20096;-59
2024/02/22 09:52:09;;;;;;;0.28;0.28;;;;;;;9.77;100.00;97160.63;5028852;28;20048;-58
2024/02/22 09:54:38;;;;;;;0.20;0.20;;;;;;;9.79;100.00;97158.47;5025463;28;20157;-58
2024/02/22 09:57:05;;;;;;;0.30;0.30;;;;;;;9.72;100.00;97159.59;5026467;28;20053;-58
2024/02/22 09:59:32;;;;;;;0.30;0.30;;;;;;;9.95;100.00;97149.16;5025146;28;20041;-58
2024/02/22 10:02:05;;;;;;;0.30;0.30;;;;;;;9.92;100.00;97147.84;5035800;28;20068;-60
2024/02/22 10:04:32;;;;;;;0.30;0.30;;;;;;;10.00;100.00;97135.69;5034088;28;20180;-59
2024/02/22 10:07:02;;;;;;;0.20;0.20;;;;;;;10.20;100.00;97134.59;5036181;28;20687;-59
2024/02/22 10:09:29;;;;;;;0.30;0.30;;;;;;;10.23;100.00;97128.66;5038899;28;20037;-58
2024/02/22 10:12:00;;;;;;;0.20;0.20;;;;;;;10.37;100.00;97112.69;5040882;28;20305;-58
2024/02/22 10:14:35;;;;;;;0.20;0.20;;;;;;;10.50;100.00;97109.25;5031690;28;20037;-59
2024/02/22 10:17:06;;;;;;;0.10;0.10;;;;;;;10.34;100.00;97105.25;5027813;28;20949;-59
2024/02/22 10:19:33;;;;;;;0.22;0.22;;;;;;;10.43;100.00;97108.03;5033925;28;20057;-59
2024/02/22 10:22:01;;;;;;;0.20;0.20;;;;;;;10.27;100.00;97099.44;5036019;28;20091;-59
2024/02/22 10:24:29;;;;;;;0.30;0.30;;;;;;;10.36;100.00;97092.38;5040316;28;20130;-58
2024/02/22 10:27:04;;;;;;;0.30;0.30;;;;;;;10.33;100.00;97079.53;5036958;28;20045;-58
2024/02/22 10:29:32;;;;;;;0.20;0.20;;;;;;;10.38;100.00;97070.63;5032768;28;20041;-58
2024/02/22 10:31:59;;;;;;;0.30;0.30;;;;;;;10.64;100.00;97069.09;5033061;28;20399;-58
2024/02/22 10:34:26;;;;;;;0.20;0.20;;;;;;;10.53;100.00;97065.81;5031846;28;20399;-58
2024/02/22 10:36:54;;;;;;;0.20;0.20;;;;;;;10.39;100.00;97062.31;5032164;28;20560;-59
2024/02/22 10:39:21;;;;;;;0.30;0.30;;;;;;;10.57;100.00;97061.44;5028492;28;20066;-58
2024/02/22 10:41:48;;;;;;;0.30;0.30;;;;;;;10.70;100.00;97061.78;5038704;28;20037;-59
2024/02/22 10:44:18;;;;;;;0.30;0.30;;;;;;;10.64;100.00;97073.69;5033562;28;20049;-58
2024/02/22 10:46:45;;;;;;;0.20;0.20;;;;;;;10.36;100.00;97061.03;5034761;28;20041;-58
2024/02/22 10:49:13;;;;;;;0.20;0.20;;;;;;;10.63;100.00;97058.69;5034175;28;20120;-59
2024/02/22 10:51:40;;;;;;;0.20;0.20;;;;;;;10.42;100.00;97045.66;5035542;28;20502;-58
2024/02/22 10:54:10;;;;;;;0.20;0.20;;;;;;;10.51;100.00;97019.78;5032384;28;20044;-58
2024/02/22 10:56:38;;;;;;;0.30;0.30;;;;;;;10.71;100.00;97017.84;5031715;28;20132;-59
2024/02/22 10:59:06;;;;;;;0.17;0.17;;;;;;;10.94;100.00;97016.03;5034425;28;20148;-59
2024/02/22 11:01:35;;;;;;;0.20;0.20;;;;;;;10.85;100.00;97009.78;5036542;28;20147;-58
2024/02/22 11:04:02;;;;;;;0.20;0.20;;;;;;;11.07;100.00;97003.72;5039464;28;20114;-59
2024/02/22 11:06:29;;;;;;;0.10;0.10;;;;;;;10.91;100.00;97016.66;5034738;28;20072;-59
2024/02/22 11:08:59;;;;;;;0.20;0.20;;;;;;;11.01;100.00;97011.88;5039031;28;20052;-58
2024/02/22 11:11:27;;;;;;;0.30;0.30;;;;;;;11.04;100.00;97004.31;5031303;28;20058;-58
2024/02/22 11:13:59;;;;;;;0.25;0.25;;;;;;;11.06;100.00;96989.53;5035483;28;20045;-58
2024/02/22 11:16:33;;;;;;;0.28;0.28;;;;;;;11.09;100.00;96980.09;5036203;28;20489;-59
2024/02/22 11:19:12;;;;;;;0.30;0.30;;;;;;;10.99;100.00;96978.41;5028876;28;20136;-59
2024/02/22 11:21:39;;;;;;;0.20;0.20;;;;;;;11.14;100.00;96962.00;5029389;28;20055;-59
2024/02/22 11:24:08;;;;;;;0.20;0.20;;;;;;;11.30;100.00;96954.41;5031254;28;20048;-59
2024/02/22 11:26:35;;;;;;;0.30;0.30;;;;;;;11.25;100.00;96943.81;5032229;28;20136;-58
2024/02/22 11:29:02;;;;;;;0.25;0.25;;;;;;;11.34;100.00;96939.31;5037235;28;20044;-59
2024/02/22 11:31:29;;;;;;;0.20;0.20;;;;;;;10.99;100.00;96927.50;5029353;28;20131;-58
2024/02/22 11:33:56;;;;;;;0.20;0.20;;;;;;;11.25;100.00;96925.03;5029987;28;20484;-59